createdAt,value
2018-04-25T00:00:07.351Z,73.86
2018-04-25T00:01:07.351Z,73.96
2018-04-25T00:02:07.356Z,74.05
2018-04-25T00:03:07.353Z,74.63
2018-04-25T00:04:07.355Z,74.44
2018-04-25T00:05:07.356Z,74.34
2018-04-25T00:06:07.357Z,74.44
2018-04-25T00:07:07.359Z,74.53
2018-04-25T00:08:07.359Z,74.73
2018-04-25T00:09:07.360Z,74.69
2018-04-25T00:10:07.360Z,74.40
2018-04-25T00:11:07.361Z,74.44
2018-04-25T00:12:07.363Z,74.63
2018-04-25T00:13:07.363Z,74.73
2018-04-25T00:14:07.363Z,73.77
2018-04-25T00:15:07.366Z,74.05
2018-04-25T00:16:07.366Z,73.67
2018-04-25T00:17:07.366Z,74.05
2018-04-25T00:18:07.368Z,73.96
2018-04-25T00:19:07.369Z,74.24
2018-04-25T00:20:07.369Z,73.86
2018-04-25T00:21:07.370Z,73.96
2018-04-25T00:22:07.371Z,74.15
2018-04-25T00:23:07.371Z,73.86
2018-04-25T00:25:07.374Z,73.92
2018-04-25T00:26:07.375Z,73.73
2018-04-25T00:27:07.375Z,74.11
2018-04-25T00:28:07.377Z,74.11
2018-04-25T00:29:07.377Z,74.21
2018-04-25T00:30:07.378Z,74.30
2018-04-25T00:31:07.379Z,74.98
2018-04-25T00:32:07.379Z,75.26
2018-04-25T00:33:07.381Z,74.88
2018-04-25T00:34:07.380Z,75.16
2018-04-25T00:35:07.382Z,74.69
2018-04-25T00:36:07.388Z,75.07
2018-04-25T00:37:07.382Z,75.07
2018-04-25T00:38:07.383Z,74.69
2018-04-25T00:39:07.385Z,74.49
2018-04-25T00:40:07.385Z,74.21
2018-04-25T00:41:07.384Z,74.69
2018-04-25T00:42:07.386Z,74.11
2018-04-25T00:43:07.387Z,74.40
2018-04-25T00:44:07.388Z,74.21
2018-04-25T00:45:07.388Z,74.11
2018-04-25T00:46:07.388Z,74.69
2018-04-25T00:47:07.389Z,75.26
2018-04-25T00:48:07.390Z,75.26
2018-04-25T00:49:07.393Z,75.35
2018-04-25T00:50:07.393Z,75.54
2018-04-25T00:51:07.392Z,74.98
2018-04-25T00:52:07.391Z,75.16
2018-04-25T00:53:07.392Z,74.40
2018-04-25T00:54:07.392Z,74.21
2018-04-25T00:55:07.395Z,74.69
2018-04-25T00:56:07.394Z,75.16
2018-04-25T00:57:07.398Z,74.69
2018-04-25T00:58:07.395Z,74.88
2018-04-25T00:59:07.399Z,74.98
2018-04-25T01:00:07.401Z,75.35
2018-04-25T01:01:07.398Z,75.54
2018-04-25T01:02:07.397Z,75.26
2018-04-25T01:03:07.398Z,75.54
2018-04-25T01:04:07.400Z,75.35
2018-04-25T01:05:07.399Z,75.35
2018-04-25T01:06:07.404Z,75.35
2018-04-25T01:07:07.400Z,75.74
2018-04-25T01:08:07.401Z,75.74
2018-04-25T01:09:07.471Z,75.35
2018-04-25T01:10:07.402Z,75.26
2018-04-25T01:11:07.402Z,75.54
2018-04-25T01:12:07.402Z,75.35
2018-04-25T01:13:07.403Z,75.26
2018-04-25T01:14:07.403Z,75.54
2018-04-25T01:15:07.403Z,75.35
2018-04-25T01:16:07.405Z,75.26
2018-04-25T01:17:07.405Z,75.35
2018-04-25T01:18:07.405Z,75.45
2018-04-25T01:19:07.405Z,75.35
2018-04-25T01:20:07.406Z,75.45
2018-04-25T01:21:07.406Z,75.07
2018-04-25T01:22:07.407Z,74.59
2018-04-25T01:23:07.407Z,74.49
2018-04-25T01:24:07.409Z,74.40
2018-04-25T01:25:07.407Z,74.59
2018-04-25T01:26:07.416Z,74.69
2018-04-25T01:27:07.409Z,74.98
2018-04-25T01:28:07.410Z,75.07
2018-04-25T01:29:07.414Z,74.69
2018-04-25T01:30:07.410Z,75.07
2018-04-25T01:31:07.411Z,74.88
2018-04-25T01:32:07.412Z,75.45
2018-04-25T01:33:07.409Z,75.07
2018-04-25T01:34:07.412Z,75.26
2018-04-25T01:35:07.411Z,74.30
2018-04-25T01:36:07.414Z,74.30
2018-04-25T01:37:07.413Z,74.49
2018-04-25T01:38:07.412Z,74.59
2018-04-25T01:39:07.414Z,74.98
2018-04-25T01:40:07.414Z,75.64
2018-04-25T01:41:07.414Z,74.78
2018-04-25T01:42:07.415Z,74.69
2018-04-25T01:43:07.414Z,75.16
2018-04-25T01:44:07.416Z,74.88
2018-04-25T01:45:07.415Z,75.45
2018-04-25T01:46:07.416Z,75.26
2018-04-25T01:47:07.418Z,75.35
2018-04-25T01:48:07.422Z,75.64
2018-04-25T01:49:07.417Z,75.74
2018-04-25T01:50:07.420Z,75.42
2018-04-25T01:51:07.418Z,75.64
2018-04-25T01:52:07.418Z,75.60
2018-04-25T01:53:07.426Z,75.89
2018-04-25T01:54:07.419Z,75.51
2018-04-25T01:55:07.420Z,75.70
2018-04-25T01:56:07.418Z,76.18
2018-04-25T01:57:07.419Z,76.18
2018-04-25T01:58:07.419Z,75.60
2018-04-25T01:59:07.422Z,75.51
2018-04-25T02:00:07.421Z,76.27
2018-04-25T02:01:07.420Z,75.79
2018-04-25T02:02:07.420Z,76.08
2018-04-25T02:03:07.421Z,75.89
2018-04-25T02:04:07.421Z,76.18
2018-04-25T02:05:07.420Z,76.18
2018-04-25T02:06:07.424Z,76.08
2018-04-25T02:07:07.422Z,75.79
2018-04-25T02:08:07.423Z,75.98
2018-04-25T02:09:07.422Z,75.79
2018-04-25T02:10:07.423Z,76.37
2018-04-25T02:11:07.422Z,76.27
2018-04-25T02:12:07.423Z,75.79
2018-04-25T02:13:07.423Z,76.46
2018-04-25T02:14:07.423Z,75.60
2018-04-25T02:15:07.423Z,76.08
2018-04-25T02:16:07.424Z,75.79
2018-04-25T02:17:07.423Z,75.42
2018-04-25T02:18:07.424Z,75.70
2018-04-25T02:19:07.424Z,75.45
2018-04-25T02:20:07.423Z,75.45
2018-04-25T02:21:07.423Z,75.35
2018-04-25T02:22:07.424Z,75.54
2018-04-25T02:23:07.427Z,75.16
2018-04-25T02:24:07.428Z,74.88
2018-04-25T02:25:07.423Z,74.88
2018-04-25T02:26:07.427Z,75.16
2018-04-25T02:27:07.425Z,74.69
2018-04-25T02:28:07.425Z,74.21
2018-04-25T02:29:07.424Z,74.49
2018-04-25T02:30:07.425Z,74.30
2018-04-25T02:31:07.425Z,74.49
2018-04-25T02:32:07.426Z,74.11
2018-04-25T02:33:07.424Z,74.59
2018-04-25T02:34:07.428Z,74.40
2018-04-25T02:35:07.427Z,74.59
2018-04-25T02:36:07.427Z,73.98
2018-04-25T02:37:07.426Z,74.49
2018-04-25T02:38:07.426Z,74.37
2018-04-25T02:39:07.427Z,74.49
2018-04-25T02:40:07.429Z,74.11
2018-04-25T02:41:07.428Z,74.69
2018-04-25T02:42:07.429Z,74.40
2018-04-25T02:43:07.429Z,74.40
2018-04-25T02:44:07.428Z,74.30
2018-04-25T02:45:07.429Z,74.21
2018-04-25T02:46:07.429Z,74.88
2018-04-25T02:47:07.432Z,74.69
2018-04-25T02:48:07.430Z,75.03
2018-04-25T02:49:07.429Z,74.74
2018-04-25T02:50:07.432Z,75.42
2018-04-25T02:51:07.432Z,74.93
2018-04-25T02:52:07.431Z,75.42
2018-04-25T02:53:07.434Z,74.93
2018-04-25T02:54:07.431Z,74.74
2018-04-25T02:55:07.434Z,75.13
2018-04-25T02:56:07.434Z,75.03
2018-04-25T02:57:07.431Z,75.22
2018-04-25T02:58:07.431Z,75.51
2018-04-25T02:59:07.434Z,74.84
2018-04-25T03:00:07.432Z,75.13
2018-04-25T03:01:07.433Z,75.42
2018-04-25T03:02:07.432Z,74.93
2018-04-25T03:03:07.432Z,75.42
2018-04-25T03:04:07.437Z,75.60
2018-04-25T03:05:07.433Z,75.89
2018-04-25T03:06:07.432Z,75.89
2018-04-25T03:07:07.434Z,75.79
2018-04-25T03:08:07.433Z,75.89
2018-04-25T03:09:07.433Z,76.27
2018-04-25T03:10:07.434Z,76.56
2018-04-25T03:11:07.435Z,76.27
2018-04-25T03:12:07.434Z,76.27
2018-04-25T03:13:07.432Z,75.70
2018-04-25T03:14:07.433Z,75.79
2018-04-25T03:15:07.435Z,76.37
2018-04-25T03:16:07.434Z,76.56
2018-04-25T03:17:07.434Z,76.75
2018-04-25T03:18:07.434Z,76.65
2018-04-25T03:19:07.438Z,77.42
2018-04-25T03:20:07.436Z,77.09
2018-04-25T03:21:07.434Z,77.19
2018-04-25T03:22:07.434Z,77.09
2018-04-25T03:23:07.434Z,77.38
2018-04-25T03:24:07.434Z,77.28
2018-04-25T03:25:07.433Z,77.38
2018-04-25T03:26:07.433Z,77.38
2018-04-25T03:27:07.433Z,77.57
2018-04-25T03:28:07.434Z,77.57
2018-04-25T03:29:07.434Z,77.47
2018-04-25T03:30:07.434Z,77.38
2018-04-25T03:31:07.434Z,77.76
2018-04-25T03:32:07.433Z,77.47
2018-04-25T03:33:07.432Z,77.19
2018-04-25T03:34:07.433Z,77.19
2018-04-25T03:35:07.433Z,76.75
2018-04-25T03:36:07.434Z,75.98
2018-04-25T03:37:07.433Z,76.27
2018-04-25T03:38:07.432Z,75.60
2018-04-25T03:39:07.432Z,75.98
2018-04-25T03:40:07.432Z,75.70
2018-04-25T03:41:07.489Z,75.70
2018-04-25T03:42:07.431Z,75.70
2018-04-25T03:43:07.432Z,75.60
2018-04-25T03:44:07.432Z,75.98
2018-04-25T03:45:07.433Z,76.27
2018-04-25T03:46:07.431Z,75.98
2018-04-25T03:47:07.431Z,75.51
2018-04-25T03:48:07.432Z,76.27
2018-04-25T03:49:07.429Z,75.70
2018-04-25T03:50:07.431Z,75.42
2018-04-25T03:51:07.430Z,75.32
2018-04-25T03:52:07.431Z,75.89
2018-04-25T03:53:07.429Z,75.79
2018-04-25T03:54:07.429Z,75.98
2018-04-25T03:55:07.432Z,75.85
2018-04-25T03:56:07.429Z,75.79
2018-04-25T03:57:07.432Z,76.08
2018-04-25T03:58:07.430Z,75.85
2018-04-25T03:59:07.484Z,75.95
2018-04-25T04:00:07.428Z,75.98
2018-04-25T04:01:07.429Z,75.89
2018-04-25T04:02:07.427Z,76.14
2018-04-25T04:03:07.427Z,76.42
2018-04-25T04:04:07.433Z,76.71
2018-04-25T04:05:07.427Z,76.71
2018-04-25T04:06:07.426Z,76.23
2018-04-25T04:07:07.426Z,76.42
2018-04-25T04:08:07.427Z,75.95
2018-04-25T04:09:07.429Z,76.04
2018-04-25T04:10:07.426Z,75.89
2018-04-25T04:11:07.426Z,75.70
2018-04-25T04:12:07.425Z,76.37
2018-04-25T04:13:07.425Z,75.70
2018-04-25T04:14:07.426Z,75.22
2018-04-25T04:15:07.425Z,75.51
2018-04-25T04:16:07.429Z,75.51
2018-04-25T04:17:07.424Z,75.03
2018-04-25T04:18:07.425Z,74.84
2018-04-25T04:19:07.426Z,74.74
2018-04-25T04:20:07.425Z,74.84
2018-04-25T04:21:07.423Z,74.74
2018-04-25T04:22:07.425Z,74.84
2018-04-25T04:23:07.424Z,74.65
2018-04-25T04:24:07.426Z,74.84
2018-04-25T04:25:07.424Z,74.93
2018-04-25T04:26:07.423Z,74.93
2018-04-25T04:27:07.426Z,75.51
2018-04-25T04:28:07.424Z,75.70
2018-04-25T04:29:07.423Z,75.13
2018-04-25T04:30:07.428Z,75.60
2018-04-25T04:31:07.422Z,75.57
2018-04-25T04:32:07.424Z,76.04
2018-04-25T04:33:07.423Z,76.52
2018-04-25T04:34:07.465Z,77.19
2018-04-25T04:35:07.425Z,77.09
2018-04-25T04:36:07.424Z,77.19
2018-04-25T04:37:07.422Z,77.09
2018-04-25T04:38:07.426Z,77.57
2018-04-25T04:39:07.424Z,78.33
2018-04-25T04:40:07.422Z,78.05
2018-04-25T04:41:07.424Z,78.33
2018-04-25T04:42:07.423Z,78.81
2018-04-25T04:43:07.481Z,78.58
2018-04-25T04:44:07.422Z,78.20
2018-04-25T04:45:07.426Z,78.86
2018-04-25T04:46:07.422Z,78.96
2018-04-25T04:47:07.423Z,79.19
2018-04-25T04:48:07.422Z,78.67
2018-04-25T04:49:07.420Z,79.15
2018-04-25T04:50:07.422Z,78.58
2018-04-25T04:51:07.423Z,78.49
2018-04-25T04:52:07.421Z,78.86
2018-04-25T04:53:07.422Z,78.86
2018-04-25T04:54:07.421Z,79.15
2018-04-25T04:55:07.421Z,79.25
2018-04-25T04:56:07.422Z,79.25
2018-04-25T04:57:07.424Z,79.15
2018-04-25T04:58:07.420Z,79.63
2018-04-25T04:59:07.420Z,78.81
2018-04-25T05:00:07.421Z,79.06
2018-04-25T05:01:07.420Z,78.39
2018-04-25T05:02:07.421Z,79.06
2018-04-25T05:03:07.422Z,78.67
2018-04-25T05:04:07.420Z,78.91
2018-04-25T05:05:07.417Z,78.05
2018-04-25T05:06:07.418Z,77.76
2018-04-25T05:07:07.419Z,78.05
2018-04-25T05:08:07.417Z,77.95
2018-04-25T05:09:07.417Z,77.47
2018-04-25T05:10:07.419Z,76.62
2018-04-25T05:11:07.417Z,76.33
2018-04-25T05:12:07.417Z,75.95
2018-04-25T05:13:07.490Z,75.70
2018-04-25T05:14:07.417Z,75.89
2018-04-25T05:15:07.418Z,76.08
2018-04-25T05:16:07.418Z,75.98
2018-04-25T05:17:07.421Z,76.18
2018-04-25T05:18:07.418Z,76.27
2018-04-25T05:19:07.418Z,75.42
2018-04-25T05:20:07.418Z,75.22
2018-04-25T05:21:07.417Z,75.60
2018-04-25T05:22:07.417Z,74.84
2018-04-25T05:23:07.418Z,75.22
2018-04-25T05:24:07.418Z,75.70
2018-04-25T05:25:07.417Z,76.08
2018-04-25T05:26:07.420Z,75.32
2018-04-25T05:27:07.418Z,75.51
2018-04-25T05:28:07.421Z,76.08
2018-04-25T05:29:07.418Z,76.84
2018-04-25T05:30:07.418Z,76.37
2018-04-25T05:31:07.419Z,75.60
2018-04-25T05:32:07.497Z,75.98
2018-04-25T05:33:07.418Z,76.46
2018-04-25T05:34:07.419Z,76.46
2018-04-25T05:35:07.423Z,76.46
2018-04-25T05:36:07.420Z,75.32
2018-04-25T05:37:07.420Z,75.22
2018-04-25T05:38:07.419Z,75.22
2018-04-25T05:39:07.420Z,75.45
2018-04-25T05:40:07.420Z,74.88
2018-04-25T05:41:07.418Z,74.02
2018-04-25T05:42:07.420Z,74.40
2018-04-25T05:43:07.421Z,74.11
2018-04-25T05:44:07.421Z,74.02
2018-04-25T05:45:07.421Z,74.49
2018-04-25T05:46:07.434Z,74.69
2018-04-25T05:47:07.422Z,75.35
2018-04-25T05:48:07.422Z,75.07
2018-04-25T05:49:07.422Z,74.21
2018-04-25T05:50:07.430Z,73.63
2018-04-25T05:51:07.424Z,73.48
2018-04-25T05:52:07.429Z,73.29
2018-04-25T05:53:07.424Z,73.48
2018-04-25T05:54:07.425Z,73.96
2018-04-25T05:55:07.426Z,73.77
2018-04-25T05:56:07.427Z,72.91
2018-04-25T05:57:07.426Z,73.10
2018-04-25T05:58:07.430Z,73.58
2018-04-25T05:59:07.428Z,73.29
2018-04-25T06:00:07.581Z,71.80
2018-04-25T06:01:07.505Z,71.03
2018-04-25T06:02:07.452Z,70.65
2018-04-25T06:03:07.431Z,71.03
2018-04-25T06:04:07.479Z,70.94
2018-04-25T06:05:07.546Z,70.27
2018-04-25T06:06:07.476Z,70.27
2018-04-25T06:07:07.502Z,69.89
2018-04-25T06:08:07.509Z,69.73
2018-04-25T06:09:07.435Z,69.54
2018-04-25T06:10:07.465Z,70.01
2018-04-25T06:11:07.470Z,70.01
2018-04-25T06:12:07.440Z,70.11
2018-04-25T06:13:07.440Z,69.73
2018-04-25T06:14:07.463Z,69.82
2018-04-25T06:15:07.443Z,69.06
2018-04-25T06:16:07.444Z,68.96
2018-04-25T06:17:07.446Z,69.44
2018-04-25T06:18:07.450Z,69.06
2018-04-25T06:19:07.449Z,69.25
2018-04-25T06:20:07.450Z,69.38
2018-04-25T06:21:07.453Z,68.62
2018-04-25T06:22:07.452Z,68.52
2018-04-25T06:23:07.454Z,67.94
2018-04-25T06:24:07.458Z,67.56
2018-04-25T06:25:07.456Z,67.47
2018-04-25T06:26:07.458Z,67.56
2018-04-25T06:27:07.459Z,68.42
2018-04-25T06:28:07.529Z,68.65
2018-04-25T06:29:07.467Z,68.17
2018-04-25T06:30:07.467Z,67.31
2018-04-25T06:31:07.466Z,66.25
2018-04-25T06:32:07.471Z,65.23
2018-04-25T06:33:07.470Z,65.97
2018-04-25T06:34:07.473Z,65.01
2018-04-25T06:35:07.475Z,64.76
2018-04-25T06:36:07.477Z,65.33
2018-04-25T06:37:07.483Z,64.47
2018-04-25T06:38:07.481Z,64.56
2018-04-25T06:39:07.483Z,64.28
2018-04-25T06:40:07.485Z,64.28
2018-04-25T06:41:07.487Z,64.37
2018-04-25T06:42:07.489Z,65.14
2018-04-25T06:43:07.491Z,63.42
2018-04-25T06:44:07.495Z,63.42
2018-04-25T06:45:07.548Z,63.13
2018-04-25T06:46:07.497Z,62.68
2018-04-25T06:47:07.521Z,62.30
2018-04-25T06:48:07.505Z,60.70
2018-04-25T06:49:07.507Z,59.41
2018-04-25T06:50:07.512Z,55.27
2018-04-25T06:51:07.517Z,52.15
2018-04-25T06:52:07.536Z,49.41
2018-04-25T06:53:07.529Z,47.72
2018-04-25T06:54:07.538Z,46.20
2018-04-25T06:55:07.546Z,44.29
2018-04-25T06:56:07.554Z,42.89
2018-04-25T06:57:07.562Z,41.46
2018-04-25T06:58:07.570Z,40.15
2018-04-25T06:59:07.578Z,39.57
2018-04-25T07:00:07.588Z,39.69
2018-04-25T07:01:07.597Z,38.81
2018-04-25T07:02:07.605Z,38.79
2018-04-25T07:03:07.616Z,39.76
2018-04-25T07:04:07.625Z,40.23
2018-04-25T07:05:07.633Z,40.59
2018-04-25T07:06:07.643Z,42.21
2018-04-25T07:07:07.655Z,43.35
2018-04-25T07:08:07.745Z,44.20
2018-04-25T07:09:07.670Z,44.27
2018-04-25T07:10:07.679Z,44.85
2018-04-25T07:11:07.688Z,45.53
2018-04-25T07:12:07.729Z,45.43
2018-04-25T07:13:07.704Z,45.34
2018-04-25T07:14:07.733Z,45.82
2018-04-25T07:15:07.721Z,46.49
2018-04-25T07:16:07.729Z,48.79
2018-04-25T07:17:07.736Z,49.94
2018-04-25T07:18:07.745Z,47.92
2018-04-25T07:19:07.753Z,47.05
2018-04-25T07:20:07.759Z,48.01
2018-04-25T07:21:07.767Z,47.55
2018-04-25T07:22:07.782Z,47.75
2018-04-25T07:23:07.783Z,49.00
2018-04-25T07:24:07.825Z,49.87
2018-04-25T07:25:07.898Z,47.92
2018-04-25T07:26:07.803Z,47.82
2018-04-25T07:27:07.811Z,47.24
2018-04-25T07:28:08.123Z,47.80
2018-04-25T07:29:07.825Z,48.40
2018-04-25T07:30:07.832Z,48.49
2018-04-25T07:31:08.109Z,47.14
2018-04-25T07:32:07.846Z,48.18
2018-04-25T07:33:07.853Z,49.55
2018-04-25T07:34:07.860Z,49.05
2018-04-25T07:35:08.621Z,48.66
2018-04-25T07:36:07.874Z,48.57
2018-04-25T07:37:08.172Z,48.95
2018-04-25T07:38:07.888Z,50.59
2018-04-25T07:39:07.896Z,50.01
2018-04-25T07:40:07.899Z,48.86
2018-04-25T07:41:08.249Z,48.95
2018-04-25T07:42:07.912Z,49.15
2018-04-25T07:43:07.918Z,50.69
2018-04-25T07:44:08.034Z,49.91
2018-04-25T07:45:07.931Z,50.21
2018-04-25T07:46:07.945Z,50.30
2018-04-25T07:47:07.944Z,49.34
2018-04-25T07:48:07.952Z,49.91
2018-04-25T07:49:07.959Z,48.38
2018-04-25T07:50:08.193Z,47.31
2018-04-25T07:51:07.978Z,46.25
2018-04-25T07:52:07.987Z,45.77
2018-04-25T07:53:07.988Z,46.08
2018-04-25T07:54:07.991Z,47.92
2018-04-25T07:55:07.997Z,48.21
2018-04-25T07:56:08.008Z,48.49
2018-04-25T07:57:08.012Z,50.21
2018-04-25T07:58:08.184Z,48.69
2018-04-25T07:59:08.025Z,47.24
2018-04-25T08:00:08.036Z,46.37
2018-04-25T08:01:08.041Z,46.20
2018-04-25T08:02:08.083Z,46.20
2018-04-25T08:03:08.098Z,46.49
2018-04-25T08:04:08.066Z,45.84
2018-04-25T08:05:08.074Z,44.12
2018-04-25T08:06:08.258Z,42.87
2018-04-25T08:07:08.091Z,43.18
2018-04-25T08:08:08.102Z,41.93
2018-04-25T08:09:08.113Z,42.25
2018-04-25T08:10:08.174Z,41.97
2018-04-25T08:11:08.203Z,41.02
2018-04-25T08:12:08.317Z,40.46
2018-04-25T08:13:08.245Z,39.59
2018-04-25T08:14:08.264Z,39.49
2018-04-25T08:15:08.175Z,39.59
2018-04-25T08:16:08.185Z,37.48
2018-04-25T08:17:08.275Z,37.38
2018-04-25T08:18:08.210Z,39.11
2018-04-25T08:19:08.220Z,39.11
2018-04-25T08:20:08.232Z,38.73
2018-04-25T08:21:08.242Z,37.48
2018-04-25T08:22:08.534Z,37.49
2018-04-25T08:23:08.267Z,38.54
2018-04-25T08:24:08.286Z,38.41
2018-04-25T08:25:08.293Z,38.78
2018-04-25T08:26:08.307Z,39.55
2018-04-25T08:27:08.320Z,39.67
2018-04-25T08:28:08.337Z,40.13
2018-04-25T08:29:08.351Z,40.34
2018-04-25T08:30:08.580Z,39.09
2018-04-25T08:31:08.372Z,39.26
2018-04-25T08:32:08.384Z,37.90
2018-04-25T08:33:08.396Z,38.00
2018-04-25T08:34:08.408Z,37.71
2018-04-25T08:35:08.479Z,38.46
2018-04-25T08:36:08.432Z,39.24
2018-04-25T08:37:08.442Z,37.71
2018-04-25T08:38:08.456Z,37.71
2018-04-25T08:39:08.469Z,37.13
2018-04-25T08:40:08.476Z,37.52
2018-04-25T08:41:08.487Z,34.91
2018-04-25T08:42:08.497Z,34.52
2018-04-25T08:43:08.509Z,34.44
2018-04-25T08:44:08.520Z,33.20
2018-04-25T08:45:08.556Z,32.81
2018-04-25T08:46:08.542Z,33.59
2018-04-25T08:47:08.552Z,34.94
2018-04-25T08:48:08.563Z,34.63
2018-04-25T08:49:08.575Z,33.95
2018-04-25T08:50:08.584Z,34.04
2018-04-25T08:51:08.596Z,33.47
2018-04-25T08:52:08.607Z,34.34
2018-04-25T08:53:08.616Z,34.45
2018-04-25T08:54:08.632Z,33.80
2018-04-25T08:55:08.663Z,34.09
2018-04-25T08:56:08.655Z,33.60
2018-04-25T08:57:08.668Z,32.76
2018-04-25T08:58:08.677Z,32.10
2018-04-25T08:59:09.005Z,30.76
2018-04-25T09:00:08.706Z,30.58
2018-04-25T09:01:08.719Z,27.78
2018-04-25T09:02:08.733Z,27.50
2018-04-25T09:03:08.746Z,27.22
2018-04-25T09:04:08.761Z,27.51
2018-04-25T09:05:08.775Z,26.64
2018-04-25T09:06:08.795Z,27.11
2018-04-25T09:07:08.805Z,28.85
2018-04-25T09:08:08.819Z,28.75
2018-04-25T09:09:08.832Z,27.76
2018-04-25T09:10:08.849Z,29.02
2018-04-25T09:11:08.864Z,27.97
2018-04-25T09:12:08.883Z,27.79
2018-04-25T09:13:08.893Z,27.61
2018-04-25T09:14:08.910Z,31.48
2018-04-25T09:15:08.927Z,32.08
2018-04-25T09:16:08.940Z,32.00
2018-04-25T09:17:08.955Z,32.00
2018-04-25T09:18:08.971Z,30.65
2018-04-25T09:19:08.987Z,30.54
2018-04-25T09:20:09.005Z,30.33
2018-04-25T09:21:09.017Z,30.12
2018-04-25T09:22:09.107Z,30.11
2018-04-25T09:23:09.053Z,29.62
2018-04-25T09:24:09.065Z,29.25
2018-04-25T09:25:09.081Z,28.00
2018-04-25T09:26:09.146Z,26.84
2018-04-25T09:27:09.408Z,28.03
2018-04-25T09:28:09.131Z,27.06
2018-04-25T09:29:09.143Z,26.86
2018-04-25T09:30:09.158Z,25.89
2018-04-25T09:31:09.178Z,25.12
2018-04-25T09:32:09.419Z,24.02
2018-04-25T09:33:09.207Z,26.14
2018-04-25T09:34:09.229Z,25.75
2018-04-25T09:35:09.243Z,24.88
2018-04-25T09:36:09.255Z,25.63
2018-04-25T09:37:09.269Z,25.34
2018-04-25T09:38:09.284Z,26.21
2018-04-25T09:39:09.300Z,26.60
2018-04-25T09:40:09.498Z,26.68
2018-04-25T09:41:09.329Z,26.87
2018-04-25T09:42:09.345Z,26.87
2018-04-25T09:43:09.360Z,27.08
2018-04-25T09:44:09.376Z,26.21
2018-04-25T09:45:09.389Z,25.84
2018-04-25T09:46:09.404Z,26.21
2018-04-25T09:47:09.420Z,26.70
2018-04-25T09:48:09.433Z,25.36
2018-04-25T09:49:09.447Z,26.54
2018-04-25T09:50:09.464Z,27.03
2018-04-25T09:51:09.477Z,25.57
2018-04-25T09:52:09.493Z,25.27
2018-04-25T09:53:09.512Z,23.21
2018-04-25T09:54:09.560Z,24.18
2018-04-25T09:55:09.536Z,23.79
2018-04-25T09:56:09.550Z,24.87
2018-04-25T09:57:09.563Z,26.78
2018-04-25T09:58:09.578Z,26.49
2018-04-25T09:59:09.591Z,26.59
2018-04-25T10:00:09.606Z,27.35
2018-04-25T10:01:09.620Z,25.41
2018-04-25T10:02:09.632Z,26.67
2018-04-25T10:03:09.646Z,26.00
2018-04-25T10:04:10.694Z,26.10
2018-04-25T10:05:09.882Z,25.31
2018-04-25T10:06:09.686Z,25.62
2018-04-25T10:07:09.699Z,24.46
2018-04-25T10:08:09.793Z,24.66
2018-04-25T10:09:09.727Z,27.48
2018-04-25T10:10:09.740Z,29.04
2018-04-25T10:11:09.754Z,29.12
2018-04-25T10:12:09.769Z,30.08
2018-04-25T10:13:09.781Z,29.98
2018-04-25T10:14:09.794Z,30.27
2018-04-25T10:15:09.817Z,30.74
2018-04-25T10:16:09.821Z,31.52
2018-04-25T10:17:09.879Z,31.53
2018-04-25T10:18:09.848Z,30.77
2018-04-25T10:19:09.859Z,31.85
2018-04-25T10:20:09.874Z,31.66
2018-04-25T10:21:09.923Z,30.90
2018-04-25T10:22:09.915Z,29.43
2018-04-25T10:23:09.983Z,29.79
2018-04-25T10:24:09.986Z,29.88
2018-04-25T10:25:09.974Z,29.38
2018-04-25T10:26:10.015Z,29.48
2018-04-25T10:27:10.090Z,29.58
2018-04-25T10:28:10.063Z,30.07
2018-04-25T10:29:10.060Z,30.63
2018-04-25T10:30:10.064Z,30.52
2018-04-25T10:31:10.054Z,31.32
2018-04-25T10:32:10.139Z,30.45
2018-04-25T10:33:10.043Z,29.40
2018-04-25T10:34:10.133Z,29.30
2018-04-25T10:35:10.069Z,29.01
2018-04-25T10:36:10.084Z,28.14
2018-04-25T10:37:10.096Z,28.83
2018-04-25T10:38:10.109Z,29.11
2018-04-25T10:39:10.122Z,29.97
2018-04-25T10:40:10.135Z,29.88
2018-04-25T10:41:10.147Z,29.01
2018-04-25T10:42:10.160Z,29.33
2018-04-25T10:43:10.179Z,28.94
2018-04-25T10:44:10.207Z,29.44
2018-04-25T10:45:10.199Z,28.18
2018-04-25T10:46:10.213Z,29.52
2018-04-25T10:47:10.670Z,28.26
2018-04-25T10:48:10.238Z,28.64
2018-04-25T10:49:10.249Z,29.21
2018-04-25T10:50:10.264Z,30.26
2018-04-25T10:51:10.303Z,29.30
2018-04-25T10:52:10.320Z,30.38
2018-04-25T10:53:10.302Z,29.41
2018-04-25T10:54:10.319Z,28.83
2018-04-25T10:55:10.328Z,30.38
2018-04-25T10:56:10.342Z,30.21
2018-04-25T10:57:10.354Z,29.22
2018-04-25T10:58:10.369Z,28.93
2018-04-25T10:59:10.379Z,28.45
2018-04-25T11:00:10.393Z,28.75
2018-04-25T11:01:10.406Z,28.55
2018-04-25T11:02:10.424Z,28.17
2018-04-25T11:03:10.434Z,26.62
2018-04-25T11:04:10.446Z,27.40
2018-04-25T11:05:10.460Z,28.28
2018-04-25T11:06:10.471Z,28.49
2018-04-25T11:07:10.487Z,28.19
2018-04-25T11:08:10.502Z,27.70
2018-04-25T11:09:10.513Z,28.19
2018-04-25T11:10:10.527Z,28.38
2018-04-25T11:11:10.540Z,28.45
2018-04-25T11:12:10.553Z,30.30
2018-04-25T11:13:10.567Z,29.43
2018-04-25T11:14:10.581Z,29.33
2018-04-25T11:15:10.595Z,28.55
2018-04-25T11:16:10.610Z,28.94
2018-04-25T11:17:10.621Z,28.94
2018-04-25T11:18:10.635Z,29.33
2018-04-25T11:19:10.649Z,30.59
2018-04-25T11:20:10.663Z,29.24
2018-04-25T11:21:10.675Z,29.14
2018-04-25T11:22:10.689Z,28.93
2018-04-25T11:23:10.711Z,31.47
2018-04-25T11:24:10.716Z,30.51
2018-04-25T11:25:12.045Z,30.61
2018-04-25T11:26:10.741Z,30.90
2018-04-25T11:27:10.756Z,30.90
2018-04-25T11:28:10.769Z,32.76
2018-04-25T11:29:10.783Z,31.88
2018-04-25T11:30:10.796Z,31.38
2018-04-25T11:31:10.811Z,32.26
2018-04-25T11:32:10.823Z,32.45
2018-04-25T11:33:10.837Z,32.44
2018-04-25T11:34:10.850Z,33.22
2018-04-25T11:35:10.864Z,32.44
2018-04-25T11:36:10.876Z,33.12
2018-04-25T11:37:10.889Z,32.34
2018-04-25T11:38:10.902Z,32.24
2018-04-25T11:39:10.916Z,31.95
2018-04-25T11:40:12.347Z,33.22
2018-04-25T11:41:11.037Z,33.31
2018-04-25T11:42:10.956Z,31.55
2018-04-25T11:43:10.970Z,32.73
2018-04-25T11:44:10.983Z,33.29
2018-04-25T11:45:10.994Z,32.71
2018-04-25T11:46:11.009Z,33.31
2018-04-25T11:47:11.115Z,33.22
2018-04-25T11:48:11.037Z,34.19
2018-04-25T11:49:11.055Z,34.19
2018-04-25T11:50:11.061Z,33.91
2018-04-25T11:51:11.074Z,33.72
2018-04-25T11:52:11.088Z,32.65
2018-04-25T11:53:11.100Z,33.72
2018-04-25T11:54:11.113Z,34.22
2018-04-25T11:55:11.126Z,33.06
2018-04-25T11:56:11.143Z,33.25
2018-04-25T11:57:11.151Z,31.50
2018-04-25T11:58:11.165Z,32.37
2018-04-25T11:59:11.179Z,32.45
2018-04-25T12:00:11.192Z,32.44
2018-04-25T12:01:11.204Z,33.31
2018-04-25T12:02:11.221Z,31.76
2018-04-25T12:03:11.231Z,31.85
2018-04-25T12:04:11.383Z,31.57
2018-04-25T12:05:11.256Z,31.16
2018-04-25T12:06:11.268Z,33.11
2018-04-25T12:07:11.281Z,33.31
2018-04-25T12:08:11.295Z,32.92
2018-04-25T12:09:11.548Z,33.99
2018-04-25T12:10:11.318Z,33.80
2018-04-25T12:11:11.332Z,33.99
2018-04-25T12:12:11.344Z,32.15
2018-04-25T12:13:11.376Z,31.85
2018-04-25T12:14:11.369Z,33.02
2018-04-25T12:15:11.386Z,32.64
2018-04-25T12:16:11.394Z,33.53
2018-04-25T12:17:11.405Z,33.81
2018-04-25T12:18:11.419Z,34.11
2018-04-25T12:19:11.436Z,32.76
2018-04-25T12:20:11.444Z,32.07
2018-04-25T12:21:11.455Z,33.43
2018-04-25T12:22:11.468Z,32.73
2018-04-25T12:23:11.481Z,33.78
2018-04-25T12:24:11.495Z,34.66
2018-04-25T12:25:11.508Z,34.35
2018-04-25T12:26:11.534Z,34.93
2018-04-25T12:27:11.785Z,36.40
2018-04-25T12:28:11.540Z,36.04
2018-04-25T12:29:11.554Z,35.94
2018-04-25T12:30:11.564Z,34.19
2018-04-25T12:31:11.578Z,34.09
2018-04-25T12:32:11.590Z,33.61
2018-04-25T12:33:11.601Z,34.09
2018-04-25T12:34:11.628Z,35.25
2018-04-25T12:35:11.626Z,34.97
2018-04-25T12:36:11.639Z,34.59
2018-04-25T12:37:11.652Z,34.87
2018-04-25T12:38:11.662Z,35.45
2018-04-25T12:39:11.742Z,34.75
2018-04-25T12:40:11.979Z,35.71
2018-04-25T12:41:11.698Z,35.32
2018-04-25T12:42:11.995Z,35.59
2018-04-25T12:43:11.722Z,36.36
2018-04-25T12:44:11.732Z,37.65
2018-04-25T12:45:11.744Z,36.00
2018-04-25T12:46:11.756Z,36.29
2018-04-25T12:47:11.802Z,35.80
2018-04-25T12:48:11.780Z,36.38
2018-04-25T12:49:11.791Z,36.38
2018-04-25T12:50:11.803Z,36.46
2018-04-25T12:51:11.814Z,36.95
2018-04-25T12:52:11.828Z,35.98
2018-04-25T12:53:11.839Z,36.27